Time,TemperatureF,DewpointF,PressureIn,WindDirection,WindDirectionDegrees,WindSpeedMPH,WindSpeedGustMPH,Humidity,HourlyPrecipIn,Conditions,Clouds,dailyrainin,SoftwareType,DateUTC
2013-05-19 00:04:00,49.2,45.2,30.12,SSW,202,0.0,0.0,86,0.00,,OVC095,0.00,VWS V14.01,2013-05-19 07:04:00,
2013-05-19 00:10:00,50.8,46.8,30.12,SSW,202,0.0,0.0,86,0.00,,OVC095,0.00,VWS V14.01,2013-05-19 07:10:00,
2013-05-19 00:15:00,51.2,42.9,30.12,SSW,202,0.0,0.0,73,0.00,,OVC095,0.00,VWS V14.01,2013-05-19 07:15:00,
2013-05-19 00:20:00,51.2,42.9,30.12,SSW,202,0.0,0.0,73,0.00,,OVC095,0.00,VWS V14.01,2013-05-19 07:20:00,
2013-05-19 00:25:00,51.2,42.9,30.12,SSW,202,0.0,0.0,73,0.00,,OVC095,0.00,VWS V14.01,2013-05-19 07:25:00,
2013-05-19 00:30:00,51.2,42.9,30.12,SSW,202,0.0,0.0,73,0.00,,OVC095,0.00,VWS V14.01,2013-05-19 07:30:00,
2013-05-19 00:35:00,51.5,43.1,30.12,SSW,202,0.0,0.0,73,0.00,,OVC095,0.00,VWS V14.01,2013-05-19 07:35:00,
2013-05-19 00:40:00,51.5,43.1,30.12,SSW,202,0.0,0.0,73,0.00,,OVC095,0.00,VWS V14.01,2013-05-19 07:40:00,
2013-05-19 00:45:00,51.5,43.1,30.12,SSW,202,0.0,0.0,73,0.00,,OVC095,0.00,VWS V14.01,2013-05-19 07:45:00,
2013-05-19 00:50:00,51.2,42.9,30.12,SSW,202,0.0,0.0,73,0.00,,OVC095,0.00,VWS V14.01,2013-05-19 07:50:00,
2013-05-19 00:55:00,51.2,42.9,30.12,SSW,202,0.0,0.0,73,0.00,,OVC095,0.00,VWS V14.01,2013-05-19 07:55:00,
2013-05-19 01:01:00,51.2,42.9,30.12,SSW,202,0.0,0.0,73,0.00,,OVC070,0.00,VWS V14.01,2013-05-19 08:01:00,
2013-05-19 01:06:00,50.9,42.6,30.13,SSW,202,0.0,0.0,73,0.00,,OVC070,0.00,VWS V14.01,2013-05-19 08:06:00,
2013-05-19 01:11:00,50.9,42.6,30.13,SSW,202,0.0,0.0,73,0.00,,OVC070,0.00,VWS V14.01,2013-05-19 08:11:00,
2013-05-19 01:16:00,50.8,42.5,30.13,SSW,202,0.0,0.0,73,0.00,,OVC070,0.00,VWS V14.01,2013-05-19 08:16:00,
2013-05-19 01:21:00,50.8,44.2,30.13,SSW,202,0.0,0.0,78,0.00,,OVC070,0.00,VWS V14.01,2013-05-19 08:21:00,
2013-05-19 01:26:00,50.6,44.0,30.13,SSW,202,0.0,0.0,78,0.00,,OVC070,0.00,VWS V14.01,2013-05-19 08:26:00,
2013-05-19 01:31:00,50.6,44.0,30.13,SSW,202,0.0,0.0,78,0.00,,OVC070,0.00,VWS V14.01,2013-05-19 08:31:00,
2013-05-19 01:36:00,50.6,44.0,30.13,SSW,202,0.0,0.0,78,0.00,,OVC070,0.00,VWS V14.01,2013-05-19 08:36:00,
2013-05-19 01:41:00,50.6,44.0,30.13,SSW,202,0.0,0.0,78,0.00,,OVC070,0.00,VWS V14.01,2013-05-19 08:41:00,
2013-05-19 01:46:00,50.6,44.0,30.13,SSW,202,0.0,0.0,78,0.00,,OVC070,0.00,VWS V14.01,2013-05-19 08:46:00,
2013-05-19 01:51:00,50.6,44.0,30.13,SSW,202,0.0,0.0,78,0.00,,OVC070,0.00,VWS V14.01,2013-05-19 08:51:00,
2013-05-19 01:56:00,50.6,44.0,30.13,SSW,202,0.0,0.0,78,0.00,,OVC070,0.00,VWS V14.01,2013-05-19 08:56:00,
2013-05-19 02:01:00,50.6,44.3,30.13,SSW,202,0.0,0.0,79,0.00,,OVC065,0.00,VWS V14.01,2013-05-19 09:01:00,
2013-05-19 02:06:00,50.5,44.2,30.13,SSW,202,0.0,0.0,79,0.00,,OVC065,0.00,VWS V14.01,2013-05-19 09:06:00,
2013-05-19 02:12:00,50.5,44.2,30.13,SSW,202,0.0,0.0,79,0.00,,OVC065,0.00,VWS V14.01,2013-05-19 09:12:00,
2013-05-19 02:17:00,50.5,44.2,30.13,SSW,202,0.0,0.0,79,0.00,,OVC065,0.00,VWS V14.01,2013-05-19 09:17:00,
2013-05-19 02:22:00,50.5,44.2,30.13,SSW,202,0.0,0.0,79,0.00,,OVC065,0.00,VWS V14.01,2013-05-19 09:22:00,
2013-05-19 02:27:00,50.5,44.2,30.13,SSW,202,0.0,0.0,79,0.00,,OVC065,0.00,VWS V14.01,2013-05-19 09:27:00,
2013-05-19 02:32:00,50.5,44.2,30.13,South,176,0.0,0.0,79,0.00,,OVC065,0.00,VWS V14.01,2013-05-19 09:32:00,
2013-05-19 02:37:00,50.5,44.2,30.14,SSW,202,0.0,0.0,79,0.00,,OVC065,0.00,VWS V14.01,2013-05-19 09:37:00,
2013-05-19 02:42:00,50.5,44.2,30.14,SSW,202,0.0,0.0,79,0.00,,OVC065,0.00,VWS V14.01,2013-05-19 09:42:00,
2013-05-19 02:47:00,50.4,44.1,30.14,SSW,202,0.0,0.0,79,0.00,,OVC065,0.00,VWS V14.01,2013-05-19 09:47:00,
2013-05-19 02:52:00,50.4,44.1,30.14,SSW,202,0.0,0.0,79,0.00,,OVC065,0.00,VWS V14.01,2013-05-19 09:52:00,
2013-05-19 02:57:00,50.4,44.1,30.14,SSW,202,0.0,0.0,79,0.00,,OVC065,0.00,VWS V14.01,2013-05-19 09:57:00,
2013-05-19 03:02:00,50.4,44.8,30.14,SSW,202,0.0,0.0,81,0.00,,OVC100,0.00,VWS V14.01,2013-05-19 10:02:00,
2013-05-19 03:07:00,50.4,44.8,30.14,SSW,202,0.0,0.0,81,0.00,,OVC100,0.00,VWS V14.01,2013-05-19 10:07:00,
2013-05-19 03:12:00,50.2,44.6,30.14,SSW,202,0.0,0.0,81,0.00,,OVC100,0.00,VWS V14.01,2013-05-19 10:12:00,
2013-05-19 03:18:00,50.1,44.5,30.15,SSW,202,0.0,0.0,81,0.00,,OVC100,0.00,VWS V14.01,2013-05-19 10:18:00,
2013-05-19 03:23:00,50.1,44.5,30.15,SSW,202,0.0,0.0,81,0.00,,OVC100,0.00,VWS V14.01,2013-05-19 10:23:00,
2013-05-19 03:28:00,50.1,44.5,30.15,SSW,202,0.0,0.0,81,0.00,,OVC100,0.00,VWS V14.01,2013-05-19 10:28:00,
2013-05-19 03:33:00,49.9,45.0,30.15,SSW,202,0.0,0.0,83,0.00,,OVC100,0.00,VWS V14.01,2013-05-19 10:33:00,
2013-05-19 03:38:00,49.9,45.0,30.15,SSW,202,0.0,0.0,83,0.00,,OVC100,0.00,VWS V14.01,2013-05-19 10:38:00,
2013-05-19 03:43:00,49.9,45.0,30.15,SSW,202,0.0,0.0,83,0.00,,OVC100,0.00,VWS V14.01,2013-05-19 10:43:00,
2013-05-19 03:48:00,49.9,45.0,30.15,SSW,202,0.0,0.0,83,0.00,,OVC100,0.00,VWS V14.01,2013-05-19 10:48:00,
2013-05-19 03:53:00,49.8,44.8,30.15,SSW,202,0.0,0.0,83,0.00,,OVC100,0.00,VWS V14.01,2013-05-19 10:53:00,
2013-05-19 03:58:00,49.6,44.7,30.15,SSW,202,0.0,0.0,83,0.00,,OVC100,0.00,VWS V14.01,2013-05-19 10:58:00,
2013-05-19 04:03:00,49.6,44.7,30.16,SSW,202,0.0,0.0,83,0.00,,OVC070,0.00,VWS V14.01,2013-05-19 11:03:00,
2013-05-19 04:08:00,49.6,44.7,30.16,SSW,202,0.0,0.0,83,0.00,,OVC070,0.00,VWS V14.01,2013-05-19 11:08:00,
2013-05-19 04:13:00,49.6,45.9,30.16,SSW,202,0.0,0.0,87,0.00,,OVC070,0.00,VWS V14.01,2013-05-19 11:13:00,
2013-05-19 04:18:00,49.6,45.9,30.16,SSW,202,0.0,0.0,87,0.00,,OVC070,0.00,VWS V14.01,2013-05-19 11:18:00,
2013-05-19 04:23:00,49.6,45.9,30.16,SSW,202,0.0,0.0,87,0.00,,OVC070,0.00,VWS V14.01,2013-05-19 11:23:00,
2013-05-19 04:28:00,49.5,45.8,30.16,SSW,202,0.0,0.0,87,0.00,,OVC070,0.00,VWS V14.01,2013-05-19 11:28:00,
2013-05-19 04:34:00,49.5,45.8,30.16,SSW,202,0.0,0.0,87,0.00,,OVC070,0.00,VWS V14.01,2013-05-19 11:34:00,
2013-05-19 04:39:00,49.5,45.8,30.16,SSW,202,0.0,0.0,87,0.00,,OVC070,0.00,VWS V14.01,2013-05-19 11:39:00,
2013-05-19 04:44:00,49.3,45.9,30.16,SSW,202,0.0,0.0,88,0.00,,OVC070,0.00,VWS V14.01,2013-05-19 11:44:00,
2013-05-19 04:49:00,49.3,45.9,30.16,SSW,202,0.0,0.0,88,0.00,,OVC070,0.00,VWS V14.01,2013-05-19 11:49:00,
2013-05-19 04:54:00,49.2,45.8,30.16,SSW,202,0.0,0.0,88,0.00,,OVC070,0.00,VWS V14.01,2013-05-19 11:54:00,
2013-05-19 04:59:00,49.0,45.6,30.16,SSW,202,0.0,0.0,88,0.00,,OVC070,0.00,VWS V14.01,2013-05-19 11:59:00,
2013-05-19 05:04:00,49.0,45.9,30.17,SSW,202,0.0,0.0,89,0.00,,OVC100,0.00,VWS V14.01,2013-05-19 12:04:00,
2013-05-19 05:09:00,49.0,45.9,30.17,SSW,202,0.0,0.0,89,0.00,,OVC100,0.00,VWS V14.01,2013-05-19 12:09:00,
2013-05-19 05:14:00,49.0,45.9,30.17,SSW,202,0.0,0.0,89,0.00,,OVC100,0.00,VWS V14.01,2013-05-19 12:14:00,
2013-05-19 05:19:00,48.9,45.8,30.17,SSW,202,0.0,0.0,89,0.00,,OVC100,0.00,VWS V14.01,2013-05-19 12:19:00,
2013-05-19 05:24:00,48.7,45.6,30.17,SSW,202,0.0,0.0,89,0.00,,OVC100,0.00,VWS V14.01,2013-05-19 12:24:00,
2013-05-19 05:29:00,48.7,45.6,30.17,SSW,202,0.0,0.0,89,0.00,,OVC100,0.00,VWS V14.01,2013-05-19 12:29:00,
2013-05-19 05:34:00,48.7,45.6,30.18,SSW,202,0.0,0.0,89,0.00,,OVC100,0.00,VWS V14.01,2013-05-19 12:34:00,
2013-05-19 05:39:00,48.7,45.6,30.18,SSW,202,0.0,0.0,89,0.00,,OVC100,0.00,VWS V14.01,2013-05-19 12:39:00,
2013-05-19 05:44:00,48.7,45.6,30.18,WNW,288,0.0,0.0,89,0.00,,OVC100,0.00,VWS V14.01,2013-05-19 12:44:00,
2013-05-19 05:50:00,48.7,45.6,30.18,WNW,282,0.0,0.0,89,0.00,,OVC100,0.00,VWS V14.01,2013-05-19 12:50:00,
2013-05-19 05:55:00,48.7,45.6,30.18,West,280,2.0,2.0,89,0.00,,OVC100,0.00,VWS V14.01,2013-05-19 12:55:00,
2013-05-19 06:00:00,50.4,47.3,30.18,WNW,291,0.0,0.0,89,0.00,,OVC100,0.00,VWS V14.01,2013-05-19 13:00:00,
2013-05-19 06:05:00,50.5,47.4,30.19,WNW,291,3.0,3.0,89,0.00,,OVC100,0.00,VWS V14.01,2013-05-19 13:05:00,
2013-05-19 06:10:00,50.6,43.7,30.19,WSW,257,1.0,1.0,77,0.00,,OVC100,0.00,VWS V14.01,2013-05-19 13:10:00,
2013-05-19 06:15:00,50.6,43.7,30.19,West,281,0.0,0.0,77,0.00,,OVC100,0.00,VWS V14.01,2013-05-19 13:15:00,
2013-05-19 06:20:00,50.6,43.7,30.19,West,281,1.0,1.0,77,0.00,,OVC100,0.00,VWS V14.01,2013-05-19 13:20:00,
2013-05-19 06:25:00,50.6,43.7,30.19,WNW,282,2.0,2.0,77,0.00,,OVC100,0.00,VWS V14.01,2013-05-19 13:25:00,
2013-05-19 06:30:00,50.8,43.9,30.19,WNW,282,0.0,0.0,77,0.00,,OVC100,0.00,VWS V14.01,2013-05-19 13:30:00,
2013-05-19 06:35:00,50.8,43.9,30.19,WNW,282,1.0,1.0,77,0.00,,OVC100,0.00,VWS V14.01,2013-05-19 13:35:00,
2013-05-19 06:40:00,50.8,43.9,30.19,ENE,61,0.0,0.0,77,0.00,,OVC100,0.00,VWS V14.01,2013-05-19 13:40:00,
2013-05-19 06:45:00,50.8,43.9,30.19,WNW,301,0.0,0.0,77,0.00,,OVC100,0.00,VWS V14.01,2013-05-19 13:45:00,
2013-05-19 06:50:00,50.6,43.7,30.19,WNW,301,0.0,0.0,77,0.00,,OVC100,0.00,VWS V14.01,2013-05-19 13:50:00,
2013-05-19 06:56:00,50.6,43.7,30.19,WNW,301,0.0,0.0,77,0.00,,OVC100,0.00,VWS V14.01,2013-05-19 13:56:00,
2013-05-19 07:01:00,50.6,43.7,30.19,WNW,299,0.0,0.0,77,0.00,,BKN100,0.00,VWS V14.01,2013-05-19 14:01:00,
2013-05-19 07:06:00,50.8,44.2,30.20,WNW,299,0.0,0.0,78,0.00,,BKN100,0.00,VWS V14.01,2013-05-19 14:06:00,
2013-05-19 07:11:00,50.8,44.2,30.20,WNW,298,0.0,0.0,78,0.00,,BKN100,0.00,VWS V14.01,2013-05-19 14:11:00,
2013-05-19 07:16:00,50.8,44.2,30.20,WNW,298,0.0,0.0,78,0.00,,BKN100,0.00,VWS V14.01,2013-05-19 14:16:00,
2013-05-19 07:21:00,50.9,44.3,30.20,WNW,298,0.0,0.0,78,0.00,,BKN100,0.00,VWS V14.01,2013-05-19 14:21:00,
2013-05-19 07:26:00,50.9,44.3,30.20,West,260,0.0,0.0,78,0.00,,BKN100,0.00,VWS V14.01,2013-05-19 14:26:00,
2013-05-19 07:31:00,50.9,44.3,30.20,West,260,0.0,0.0,78,0.00,,BKN100,0.00,VWS V14.01,2013-05-19 14:31:00,
2013-05-19 07:36:00,51.2,44.6,30.20,West,260,0.0,0.0,78,0.00,,BKN100,0.00,VWS V14.01,2013-05-19 14:36:00,
2013-05-19 07:41:00,51.2,44.2,30.20,West,260,0.0,0.0,77,0.00,,BKN100,0.00,VWS V14.01,2013-05-19 14:41:00,
2013-05-19 07:46:00,51.2,44.2,30.20,West,260,0.0,0.0,77,0.00,,BKN100,0.00,VWS V14.01,2013-05-19 14:46:00,
2013-05-19 07:51:00,51.4,44.4,30.20,West,260,0.0,0.0,77,0.00,,BKN100,0.00,VWS V14.01,2013-05-19 14:51:00,
2013-05-19 07:56:00,51.5,44.5,30.20,West,275,0.0,0.0,77,0.00,,BKN100,0.00,VWS V14.01,2013-05-19 14:56:00,
2013-05-19 08:01:00,51.5,44.5,30.20,West,275,0.0,0.0,77,0.00,,BKN110,0.00,VWS V14.01,2013-05-19 15:01:00,
2013-05-19 08:06:00,51.7,44.7,30.21,West,277,3.0,3.0,77,0.00,,BKN110,0.00,VWS V14.01,2013-05-19 15:06:00,
2013-05-19 08:12:00,51.8,44.8,30.21,West,277,0.0,0.0,77,0.00,,BKN110,0.00,VWS V14.01,2013-05-19 15:12:00,
2013-05-19 08:17:00,52.1,45.1,30.21,West,277,0.0,0.0,77,0.00,,BKN110,0.00,VWS V14.01,2013-05-19 15:17:00,
2013-05-19 08:22:00,52.1,45.1,30.21,West,277,0.0,0.0,77,0.00,,BKN110,0.00,VWS V14.01,2013-05-19 15:22:00,
2013-05-19 08:27:00,52.1,45.1,30.21,West,277,0.0,0.0,77,0.00,,BKN110,0.00,VWS V14.01,2013-05-19 15:27:00,
2013-05-19 08:32:00,52.4,45.4,30.21,West,277,0.0,0.0,77,0.00,,BKN110,0.00,VWS V14.01,2013-05-19 15:32:00,
2013-05-19 08:37:00,52.6,45.6,30.21,West,277,1.0,1.0,77,0.00,,BKN110,0.00,VWS V14.01,2013-05-19 15:37:00,
2013-05-19 08:42:00,52.6,44.2,30.21,West,277,0.0,0.0,73,0.00,,BKN110,0.00,VWS V14.01,2013-05-19 15:42:00,
2013-05-19 08:47:00,52.6,44.2,30.21,West,277,0.0,0.0,73,0.00,,BKN110,0.00,VWS V14.01,2013-05-19 15:47:00,
2013-05-19 08:52:00,53.2,44.8,30.21,West,277,1.0,1.0,73,0.00,,BKN110,0.00,VWS V14.01,2013-05-19 15:52:00,
2013-05-19 08:57:00,53.3,44.9,30.21,NW,308,2.0,2.0,73,0.00,,BKN110,0.00,VWS V14.01,2013-05-19 15:57:00,
2013-05-19 09:02:00,53.3,44.9,30.21,NW,304,0.0,0.0,73,0.00,,BKN110,0.00,VWS V14.01,2013-05-19 16:02:00,
2013-05-19 09:07:00,53.3,44.9,30.21,WNW,282,0.0,0.0,73,0.00,,BKN110,0.00,VWS V14.01,2013-05-19 16:07:00,
2013-05-19 09:12:00,54.2,44.6,30.21,WNW,282,0.0,0.0,70,0.00,,BKN110,0.00,VWS V14.01,2013-05-19 16:12:00,
2013-05-19 09:17:00,54.2,44.6,30.22,WNW,282,0.0,0.0,70,0.00,,BKN110,0.00,VWS V14.01,2013-05-19 16:17:00,
2013-05-19 09:23:00,54.2,44.6,30.22,WNW,282,0.0,0.0,70,0.00,,BKN110,0.00,VWS V14.01,2013-05-19 16:23:00,
2013-05-19 09:28:00,54.2,44.6,30.22,WNW,282,0.0,0.0,70,0.00,,BKN110,0.00,VWS V14.01,2013-05-19 16:28:00,
2013-05-19 09:33:00,55.8,46.2,30.22,WNW,282,0.0,0.0,70,0.00,,BKN110,0.00,VWS V14.01,2013-05-19 16:33:00,
2013-05-19 09:38:00,55.8,46.2,30.22,WNW,282,2.0,2.0,70,0.00,,BKN110,0.00,VWS V14.01,2013-05-19 16:38:00,
2013-05-19 09:43:00,55.8,46.2,30.22,WNW,282,0.0,0.0,70,0.00,,BKN110,0.00,VWS V14.01,2013-05-19 16:43:00,
2013-05-19 09:48:00,56.7,47.0,30.22,WNW,282,2.0,2.0,70,0.00,,BKN110,0.00,VWS V14.01,2013-05-19 16:48:00,
2013-05-19 09:53:00,56.7,47.0,30.22,WNW,284,0.0,1.0,70,0.00,,BKN110,0.00,VWS V14.01,2013-05-19 16:53:00,
2013-05-19 09:58:00,57.7,48.0,30.22,WNW,284,0.0,0.0,70,0.00,,BKN110,0.00,VWS V14.01,2013-05-19 16:58:00,
2013-05-19 10:03:00,57.7,48.0,30.22,WNW,284,0.0,0.0,70,0.00,,BKN120,0.00,VWS V14.01,2013-05-19 17:03:00,
2013-05-19 10:08:00,58.5,48.8,30.22,WNW,284,1.0,1.0,70,0.00,,BKN120,0.00,VWS V14.01,2013-05-19 17:08:00,
2013-05-19 10:13:00,58.5,48.8,30.22,SSE,162,0.0,0.0,70,0.00,,BKN120,0.00,VWS V14.01,2013-05-19 17:13:00,
2013-05-19 10:18:00,59.0,49.2,30.22,West,270,0.0,0.0,70,0.00,,BKN120,0.00,VWS V14.01,2013-05-19 17:18:00,
2013-05-19 10:24:00,59.4,46.4,30.22,SW,236,0.0,0.0,62,0.00,,BKN120,0.00,VWS V14.01,2013-05-19 17:24:00,
2013-05-19 10:29:00,59.1,46.1,30.22,WNW,294,0.0,1.0,62,0.00,,BKN120,0.00,VWS V14.01,2013-05-19 17:29:00,
2013-05-19 10:34:00,59.3,46.3,30.22,WNW,294,0.0,0.0,62,0.00,,BKN120,0.00,VWS V14.01,2013-05-19 17:34:00,
2013-05-19 10:39:00,59.4,46.4,30.22,West,277,2.0,2.0,62,0.00,,BKN120,0.00,VWS V14.01,2013-05-19 17:39:00,
2013-05-19 10:44:00,59.1,46.1,30.22,West,278,0.0,0.0,62,0.00,,BKN120,0.00,VWS V14.01,2013-05-19 17:44:00,
2013-05-19 10:49:00,58.6,45.6,30.22,West,277,0.0,0.0,62,0.00,,BKN120,0.00,VWS V14.01,2013-05-19 17:49:00,
2013-05-19 10:54:00,58.5,45.5,30.22,West,277,0.0,0.0,62,0.00,,BKN120,0.00,VWS V14.01,2013-05-19 17:54:00,
2013-05-19 10:59:00,58.5,45.5,30.22,West,277,1.0,1.0,62,0.00,,BKN120,0.00,VWS V14.01,2013-05-19 17:59:00,
2013-05-19 11:04:00,58.5,45.5,30.22,West,281,0.0,0.0,62,0.00,,BKN110,0.00,VWS V14.01,2013-05-19 18:04:00,
2013-05-19 11:09:00,58.0,45.1,30.22,West,281,0.0,0.0,62,0.00,,BKN110,0.00,VWS V14.01,2013-05-19 18:09:00,
2013-05-19 11:14:00,58.0,45.1,30.22,West,281,0.0,0.0,62,0.00,,BKN110,0.00,VWS V14.01,2013-05-19 18:14:00,
2013-05-19 11:19:00,58.0,45.1,30.22,WNW,295,0.0,0.0,62,0.00,,BKN110,0.00,VWS V14.01,2013-05-19 18:19:00,
2013-05-19 11:24:00,58.2,46.1,30.22,WNW,296,0.0,0.0,64,0.00,,BKN110,0.00,VWS V14.01,2013-05-19 18:24:00,
2013-05-19 11:29:00,58.6,46.5,30.22,East,79,0.0,1.0,64,0.00,,BKN110,0.00,VWS V14.01,2013-05-19 18:29:00,
2013-05-19 11:34:00,59.0,46.8,30.22,NW,313,0.0,0.0,64,0.00,,BKN110,0.00,VWS V14.01,2013-05-19 18:34:00,
2013-05-19 11:40:00,59.4,47.7,30.22,WSW,254,5.0,5.0,65,0.00,,BKN110,0.00,VWS V14.01,2013-05-19 18:40:00,
2013-05-19 11:45:00,59.7,46.2,30.22,WNW,292,0.0,3.0,61,0.00,,BKN110,0.00,VWS V14.01,2013-05-19 18:45:00,
2013-05-19 11:50:00,59.7,45.8,30.22,WNW,288,0.0,3.0,60,0.00,,BKN110,0.00,VWS V14.01,2013-05-19 18:50:00,
2013-05-19 11:55:00,60.0,46.5,30.22,NE,38,0.0,0.0,61,0.00,,BKN110,0.00,VWS V14.01,2013-05-19 18:55:00,
2013-05-19 12:00:00,60.6,47.1,30.22,NNE,17,0.0,0.0,61,0.00,,BKN110,0.00,VWS V14.01,2013-05-19 19:00:00,
2013-05-19 12:05:00,60.8,46.8,30.22,WSW,239,0.0,0.0,60,0.00,,OVC065,0.00,VWS V14.01,2013-05-19 19:05:00,
2013-05-19 12:10:00,61.5,47.5,30.22,NNE,23,0.0,0.0,60,0.00,,OVC065,0.00,VWS V14.01,2013-05-19 19:10:00,
2013-05-19 12:15:00,61.9,47.9,30.22,NE,35,0.0,0.0,60,0.00,,OVC065,0.00,VWS V14.01,2013-05-19 19:15:00,
2013-05-19 12:20:00,62.3,46.4,30.22,WNW,299,0.0,0.0,56,0.00,,OVC065,0.00,VWS V14.01,2013-05-19 19:20:00,
2013-05-19 12:25:00,62.5,46.6,30.22,NE,42,0.0,0.0,56,0.00,,OVC065,0.00,VWS V14.01,2013-05-19 19:25:00,
2013-05-19 12:31:00,62.3,46.4,30.22,North,0,0.0,0.0,56,0.00,,OVC065,0.00,VWS V14.01,2013-05-19 19:31:00,
2013-05-19 12:36:00,62.3,46.4,30.21,NNE,32,0.0,0.0,56,0.00,,OVC065,0.00,VWS V14.01,2013-05-19 19:36:00,
2013-05-19 12:41:00,62.6,46.7,30.21,NNE,32,0.0,0.0,56,0.00,,OVC065,0.00,VWS V14.01,2013-05-19 19:41:00,
2013-05-19 12:46:00,62.8,46.9,30.21,NNE,32,1.0,1.0,56,0.00,,OVC065,0.00,VWS V14.01,2013-05-19 19:46:00,
2013-05-19 12:51:00,62.6,46.7,30.21,NNE,32,0.0,0.0,56,0.00,,OVC065,0.00,VWS V14.01,2013-05-19 19:51:00,
2013-05-19 12:56:00,62.8,46.9,30.21,NE,34,0.0,0.0,56,0.00,,OVC065,0.00,VWS V14.01,2013-05-19 19:56:00,
2013-05-19 13:01:00,62.8,46.9,30.21,NE,34,0.0,0.0,56,0.00,,BKN065,0.00,VWS V14.01,2013-05-19 20:01:00,
2013-05-19 13:06:00,63.4,47.5,30.21,NNE,32,0.0,0.0,56,0.00,,BKN065,0.00,VWS V14.01,2013-05-19 20:06:00,
2013-05-19 13:11:00,63.6,47.6,30.21,NNE,30,0.0,0.0,56,0.00,,BKN065,0.00,VWS V14.01,2013-05-19 20:11:00,
2013-05-19 13:16:00,63.7,47.7,30.21,West,265,0.0,0.0,56,0.00,,BKN065,0.00,VWS V14.01,2013-05-19 20:16:00,
2013-05-19 13:21:00,64.1,48.1,30.21,West,265,0.0,0.0,56,0.00,,BKN065,0.00,VWS V14.01,2013-05-19 20:21:00,
2013-05-19 13:26:00,64.2,48.2,30.21,West,265,0.0,0.0,56,0.00,,BKN065,0.00,VWS V14.01,2013-05-19 20:26:00,
2013-05-19 13:32:00,64.7,48.7,30.21,West,265,0.0,0.0,56,0.00,,BKN065,0.00,VWS V14.01,2013-05-19 20:32:00,
2013-05-19 13:37:00,65.2,49.1,30.20,West,265,0.0,0.0,56,0.00,,BKN065,0.00,VWS V14.01,2013-05-19 20:37:00,
2013-05-19 13:42:00,65.2,49.1,30.20,West,265,0.0,0.0,56,0.00,,BKN065,0.00,VWS V14.01,2013-05-19 20:42:00,
2013-05-19 13:47:00,65.2,49.1,30.20,West,265,0.0,0.0,56,0.00,,BKN065,0.00,VWS V14.01,2013-05-19 20:47:00,
2013-05-19 13:52:00,65.2,49.1,30.20,West,265,0.0,0.0,56,0.00,,BKN065,0.00,VWS V14.01,2013-05-19 20:52:00,
2013-05-19 13:57:00,65.2,49.1,30.20,West,265,0.0,0.0,56,0.00,,BKN065,0.00,VWS V14.01,2013-05-19 20:57:00,
2013-05-19 14:02:00,65.2,49.1,30.20,ESE,104,0.0,0.0,56,0.00,,OVC060,0.00,VWS V14.01,2013-05-19 21:02:00,
2013-05-19 14:07:00,65.2,48.2,30.20,ESE,104,0.0,0.0,54,0.00,,OVC060,0.00,VWS V14.01,2013-05-19 21:07:00,
2013-05-19 14:12:00,65.2,48.2,30.20,ESE,104,0.0,0.0,54,0.00,,OVC060,0.00,VWS V14.01,2013-05-19 21:12:00,
2013-05-19 14:17:00,65.2,48.2,30.20,ESE,104,0.0,0.0,54,0.00,,OVC060,0.00,VWS V14.01,2013-05-19 21:17:00,
2013-05-19 14:22:00,65.2,48.2,30.20,ESE,104,0.0,0.0,54,0.00,,OVC060,0.00,VWS V14.01,2013-05-19 21:22:00,
2013-05-19 14:27:00,63.9,47.0,30.20,ESE,104,0.0,0.0,54,0.00,,OVC060,0.00,VWS V14.01,2013-05-19 21:27:00,
2013-05-19 14:33:00,63.9,47.0,30.20,ESE,104,0.0,0.0,54,0.00,,OVC060,0.00,VWS V14.01,2013-05-19 21:33:00,
2013-05-19 14:38:00,63.9,47.0,30.20,ESE,106,0.0,0.0,54,0.00,,OVC060,0.00,VWS V14.01,2013-05-19 21:38:00,
2013-05-19 14:43:00,65.3,48.2,30.20,NE,55,0.0,0.0,54,0.00,,OVC060,0.00,VWS V14.01,2013-05-19 21:43:00,
2013-05-19 14:48:00,65.3,48.2,30.20,NW,304,0.0,0.0,54,0.00,,OVC060,0.00,VWS V14.01,2013-05-19 21:48:00,
2013-05-19 14:53:00,65.3,48.2,30.20,NW,304,0.0,0.0,54,0.00,,OVC060,0.00,VWS V14.01,2013-05-19 21:53:00,
2013-05-19 14:58:00,65.3,48.2,30.20,NNW,337,0.0,0.0,54,0.00,,OVC060,0.00,VWS V14.01,2013-05-19 21:58:00,
2013-05-19 15:03:00,65.3,45.7,30.19,SE,133,0.0,0.0,49,0.00,,BKN080,0.00,VWS V14.01,2013-05-19 22:03:00,
2013-05-19 15:08:00,68.1,48.2,30.19,ENE,71,0.0,0.0,49,0.00,,BKN080,0.00,VWS V14.01,2013-05-19 22:08:00,
2013-05-19 15:13:00,68.1,48.2,30.19,ENE,71,1.0,1.0,49,0.00,,BKN080,0.00,VWS V14.01,2013-05-19 22:13:00,
2013-05-19 15:18:00,67.0,47.2,30.19,SE,136,1.0,1.0,49,0.00,,BKN080,0.00,VWS V14.01,2013-05-19 22:18:00,
2013-05-19 15:23:00,67.0,47.2,30.19,SE,136,0.0,0.0,49,0.00,,BKN080,0.00,VWS V14.01,2013-05-19 22:23:00,
2013-05-19 15:28:00,67.0,47.2,30.19,SE,136,0.0,0.0,49,0.00,,BKN080,0.00,VWS V14.01,2013-05-19 22:28:00,
2013-05-19 15:33:00,66.0,46.3,30.19,SE,137,0.0,0.0,49,0.00,,BKN080,0.00,VWS V14.01,2013-05-19 22:33:00,
2013-05-19 15:39:00,66.0,46.8,30.19,SE,137,0.0,0.0,50,0.00,,BKN080,0.00,VWS V14.01,2013-05-19 22:39:00,
2013-05-19 15:44:00,66.0,46.8,30.19,SE,137,0.0,0.0,50,0.00,,BKN080,0.00,VWS V14.01,2013-05-19 22:44:00,
2013-05-19 15:49:00,66.0,46.8,30.19,SE,137,0.0,0.0,50,0.00,,BKN080,0.00,VWS V14.01,2013-05-19 22:49:00,
2013-05-19 15:54:00,66.5,45.7,30.19,SE,137,0.0,0.0,47,0.00,,BKN080,0.00,VWS V14.01,2013-05-19 22:54:00,
2013-05-19 15:59:00,66.8,45.9,30.19,SE,137,0.0,0.0,47,0.00,,BKN080,0.00,VWS V14.01,2013-05-19 22:59:00,
2013-05-19 16:04:00,66.6,45.8,30.19,SE,137,0.0,0.0,47,0.00,,BKN080,0.00,VWS V14.01,2013-05-19 23:04:00,
2013-05-19 16:09:00,66.6,45.8,30.19,SE,137,0.0,0.0,47,0.00,,BKN080,0.00,VWS V14.01,2013-05-19 23:09:00,
2013-05-19 16:14:00,67.1,46.2,30.19,SE,137,0.0,0.0,47,0.00,,BKN080,0.00,VWS V14.01,2013-05-19 23:14:00,
2013-05-19 16:19:00,67.1,46.2,30.19,SE,137,0.0,0.0,47,0.00,,BKN080,0.00,VWS V14.01,2013-05-19 23:19:00,
2013-05-19 16:24:00,67.1,46.2,30.19,SE,137,0.0,0.0,47,0.00,,BKN080,0.00,VWS V14.01,2013-05-19 23:24:00,
2013-05-19 16:30:00,68.6,47.6,30.19,SE,137,0.0,0.0,47,0.00,,BKN080,0.00,VWS V14.01,2013-05-19 23:30:00,
2013-05-19 16:35:00,68.6,47.6,30.19,SE,137,0.0,0.0,47,0.00,,BKN080,0.00,VWS V14.01,2013-05-19 23:35:00,
2013-05-19 16:40:00,68.6,47.6,30.19,SSE,148,0.0,0.0,47,0.00,,BKN080,0.00,VWS V14.01,2013-05-19 23:40:00,
2013-05-19 16:45:00,67.6,46.7,30.19,SSE,148,0.0,0.0,47,0.00,,BKN080,0.00,VWS V14.01,2013-05-19 23:45:00,
2013-05-19 16:50:00,67.1,46.2,30.19,SSE,148,0.0,0.0,47,0.00,,BKN080,0.00,VWS V14.01,2013-05-19 23:50:00,
2013-05-19 16:55:00,67.0,46.1,30.19,SSE,148,0.0,0.0,47,0.00,,BKN080,0.00,VWS V14.01,2013-05-19 23:55:00,
2013-05-19 17:00:00,66.5,45.1,30.19,WSW,240,0.0,0.0,46,0.00,,BKN080,0.00,VWS V14.01,2013-05-20 00:00:00,
2013-05-19 17:05:00,66.5,46.2,30.19,WSW,240,0.0,0.0,48,0.00,,CLR,0.00,VWS V14.01,2013-05-20 00:05:00,
2013-05-19 17:10:00,66.5,46.2,30.19,WSW,240,0.0,0.0,48,0.00,,CLR,0.00,VWS V14.01,2013-05-20 00:10:00,
2013-05-19 17:15:00,66.5,46.2,30.19,WSW,240,0.0,0.0,48,0.00,,CLR,0.00,VWS V14.01,2013-05-20 00:15:00,
2013-05-19 17:20:00,67.1,46.8,30.19,WNW,295,0.0,0.0,48,0.00,,CLR,0.00,VWS V14.01,2013-05-20 00:20:00,
2013-05-19 17:25:00,68.1,47.7,30.19,WNW,295,0.0,0.0,48,0.00,,CLR,0.00,VWS V14.01,2013-05-20 00:25:00,
2013-05-19 17:30:00,68.1,47.7,30.19,WNW,295,0.0,0.0,48,0.00,,CLR,0.00,VWS V14.01,2013-05-20 00:30:00,
2013-05-19 17:35:00,68.1,47.7,30.19,West,272,0.0,0.0,48,0.00,,CLR,0.00,VWS V14.01,2013-05-20 00:35:00,
2013-05-19 17:40:00,68.1,47.7,30.19,SSW,198,0.0,0.0,48,0.00,,CLR,0.00,VWS V14.01,2013-05-20 00:40:00,
2013-05-19 17:45:00,68.1,47.7,30.19,West,278,0.0,0.0,48,0.00,,CLR,0.00,VWS V14.01,2013-05-20 00:45:00,
2013-05-19 17:50:00,66.8,46.5,30.19,West,278,0.0,0.0,48,0.00,,CLR,0.00,VWS V14.01,2013-05-20 00:50:00,
2013-05-19 17:55:00,66.5,46.2,30.19,West,278,0.0,0.0,48,0.00,,CLR,0.00,VWS V14.01,2013-05-20 00:55:00,
2013-05-19 18:00:00,66.5,46.2,30.19,West,278,0.0,0.0,48,0.00,,CLR,0.00,VWS V14.01,2013-05-20 01:00:00,
2013-05-19 18:05:00,66.5,46.2,30.19,West,278,0.0,0.0,48,0.00,,BKN095,0.00,VWS V14.01,2013-05-20 01:05:00,
2013-05-19 18:10:00,66.5,47.8,30.19,West,278,0.0,0.0,51,0.00,,BKN095,0.00,VWS V14.01,2013-05-20 01:10:00,
2013-05-19 18:15:00,66.5,47.8,30.19,West,278,0.0,0.0,51,0.00,,BKN095,0.00,VWS V14.01,2013-05-20 01:15:00,
2013-05-19 18:20:00,65.0,46.5,30.19,West,278,0.0,0.0,51,0.00,,BKN095,0.00,VWS V14.01,2013-05-20 01:20:00,
2013-05-19 18:25:00,65.0,46.5,30.19,West,278,0.0,0.0,51,0.00,,BKN095,0.00,VWS V14.01,2013-05-20 01:25:00,
2013-05-19 18:30:00,64.9,46.9,30.19,West,278,0.0,0.0,52,0.00,,BKN095,0.00,VWS V14.01,2013-05-20 01:30:00,
2013-05-19 18:35:00,64.9,46.9,30.19,West,278,0.0,0.0,52,0.00,,BKN095,0.00,VWS V14.01,2013-05-20 01:35:00,
2013-05-19 18:41:00,65.7,47.6,30.19,West,278,1.0,1.0,52,0.00,,BKN095,0.00,VWS V14.01,2013-05-20 01:41:00,
2013-05-19 18:46:00,65.7,47.1,30.19,WSW,254,1.0,1.0,51,0.00,,BKN095,0.00,VWS V14.01,2013-05-20 01:46:00,
2013-05-19 18:51:00,65.7,47.1,30.19,WSW,254,0.0,0.0,51,0.00,,BKN095,0.00,VWS V14.01,2013-05-20 01:51:00,
2013-05-19 18:56:00,65.7,47.1,30.19,WSW,254,0.0,0.0,51,0.00,,BKN095,0.00,VWS V14.01,2013-05-20 01:56:00,
2013-05-19 19:01:00,65.7,48.6,30.19,WSW,254,0.0,0.0,54,0.00,,BKN090,0.00,VWS V14.01,2013-05-20 02:01:00,
2013-05-19 19:06:00,65.7,48.6,30.20,WSW,254,0.0,0.0,54,0.00,,BKN090,0.00,VWS V14.01,2013-05-20 02:06:00,
2013-05-19 19:11:00,64.7,47.7,30.20,WSW,254,0.0,0.0,54,0.00,,BKN090,0.00,VWS V14.01,2013-05-20 02:11:00,
2013-05-19 19:16:00,64.7,47.7,30.20,WSW,254,0.0,0.0,54,0.00,,BKN090,0.00,VWS V14.01,2013-05-20 02:16:00,
2013-05-19 19:21:00,64.7,47.7,30.20,WSW,254,0.0,0.0,54,0.00,,BKN090,0.00,VWS V14.01,2013-05-20 02:21:00,
2013-05-19 19:26:00,64.7,47.7,30.20,WSW,254,0.0,0.0,54,0.00,,BKN090,0.00,VWS V14.01,2013-05-20 02:26:00,
2013-05-19 19:31:00,64.1,47.1,30.20,WSW,254,0.0,0.0,54,0.00,,BKN090,0.00,VWS V14.01,2013-05-20 02:31:00,
2013-05-19 19:36:00,63.6,47.6,30.20,WSW,254,0.0,0.0,56,0.00,,BKN090,0.00,VWS V14.01,2013-05-20 02:36:00,
2013-05-19 19:41:00,63.3,47.3,30.20,WSW,254,0.0,0.0,56,0.00,,BKN090,0.00,VWS V14.01,2013-05-20 02:41:00,
2013-05-19 19:46:00,63.3,47.3,30.20,WSW,254,0.0,0.0,56,0.00,,BKN090,0.00,VWS V14.01,2013-05-20 02:46:00,
2013-05-19 19:52:00,62.6,46.7,30.20,WSW,254,0.0,0.0,56,0.00,,BKN090,0.00,VWS V14.01,2013-05-20 02:52:00,
2013-05-19 19:57:00,62.3,46.4,30.20,WSW,254,0.0,0.0,56,0.00,,BKN090,0.00,VWS V14.01,2013-05-20 02:57:00,
2013-05-19 20:02:00,62.3,46.4,30.20,WSW,254,0.0,0.0,56,0.00,,BKN080,0.00,VWS V14.01,2013-05-20 03:02:00,
2013-05-19 20:07:00,62.3,46.4,30.20,WSW,254,0.0,0.0,56,0.00,,BKN080,0.00,VWS V14.01,2013-05-20 03:07:00,
2013-05-19 20:12:00,61.1,45.3,30.20,WSW,254,0.0,0.0,56,0.00,,BKN080,0.00,VWS V14.01,2013-05-20 03:12:00,
2013-05-19 20:17:00,60.3,44.6,30.20,WSW,254,0.0,0.0,56,0.00,,BKN080,0.00,VWS V14.01,2013-05-20 03:17:00,
2013-05-19 20:22:00,60.0,44.3,30.20,WSW,254,0.0,0.0,56,0.00,,BKN080,0.00,VWS V14.01,2013-05-20 03:22:00,
2013-05-19 20:27:00,60.0,48.6,30.20,WSW,254,0.0,0.0,66,0.00,,BKN080,0.00,VWS V14.01,2013-05-20 03:27:00,
2013-05-19 20:33:00,60.0,49.4,30.20,WSW,254,0.0,0.0,68,0.00,,BKN080,0.00,VWS V14.01,2013-05-20 03:33:00,
2013-05-19 20:38:00,60.0,49.4,30.20,WSW,254,0.0,0.0,68,0.00,,BKN080,0.00,VWS V14.01,2013-05-20 03:38:00,
2013-05-19 20:43:00,58.0,47.5,30.20,WSW,254,0.0,0.0,68,0.00,,BKN080,0.00,VWS V14.01,2013-05-20 03:43:00,
2013-05-19 20:48:00,57.7,47.2,30.21,WSW,254,0.0,0.0,68,0.00,,BKN080,0.00,VWS V14.01,2013-05-20 03:48:00,
2013-05-19 20:53:00,57.2,46.8,30.21,WSW,254,0.0,0.0,68,0.00,,BKN080,0.00,VWS V14.01,2013-05-20 03:53:00,
2013-05-19 20:58:00,57.2,46.8,30.21,WSW,254,0.0,0.0,68,0.00,,BKN080,0.00,VWS V14.01,2013-05-20 03:58:00,
2013-05-19 21:01:00,56.6,46.2,30.21,WSW,254,0.0,0.0,68,0.00,,CLR,0.00,VWS V14.01,2013-05-20 04:01:00,
2013-05-19 21:03:00,56.6,46.2,30.21,WSW,254,0.0,0.0,68,0.00,,CLR,0.00,VWS V14.01,2013-05-20 04:03:00,
2013-05-19 21:08:00,55.7,45.3,30.21,WSW,254,0.0,0.0,68,0.00,,CLR,0.00,VWS V14.01,2013-05-20 04:08:00,
2013-05-19 21:13:00,55.4,45.0,30.21,WSW,254,0.0,0.0,68,0.00,,CLR,0.00,VWS V14.01,2013-05-20 04:13:00,
2013-05-19 21:18:00,55.1,44.7,30.21,WSW,254,0.0,0.0,68,0.00,,CLR,0.00,VWS V14.01,2013-05-20 04:18:00,
2013-05-19 21:23:00,54.6,44.3,30.21,WSW,254,0.0,0.0,68,0.00,,CLR,0.00,VWS V14.01,2013-05-20 04:23:00,
2013-05-19 21:28:00,54.3,44.0,30.21,WSW,254,0.0,0.0,68,0.00,,CLR,0.00,VWS V14.01,2013-05-20 04:28:00,
2013-05-19 21:33:00,54.3,44.0,30.21,WSW,254,0.0,0.0,68,0.00,,CLR,0.00,VWS V14.01,2013-05-20 04:33:00,
2013-05-19 21:38:00,53.5,43.2,30.21,WSW,254,0.0,0.0,68,0.00,,CLR,0.00,VWS V14.01,2013-05-20 04:38:00,
2013-05-19 21:43:00,53.3,43.0,30.21,WSW,254,0.0,0.0,68,0.00,,CLR,0.00,VWS V14.01,2013-05-20 04:43:00,
2013-05-19 21:48:00,52.9,42.6,30.21,WSW,254,0.0,0.0,68,0.00,,CLR,0.00,VWS V14.01,2013-05-20 04:48:00,
2013-05-19 21:53:00,52.9,42.6,30.21,WSW,254,0.0,0.0,68,0.00,,CLR,0.00,VWS V14.01,2013-05-20 04:53:00,
2013-05-19 21:59:00,52.9,42.6,30.21,WSW,254,0.0,0.0,68,0.00,,CLR,0.00,VWS V14.01,2013-05-20 04:59:00,
2013-05-19 22:04:00,52.9,42.6,30.22,WSW,254,0.0,0.0,68,0.00,,OVC095,0.00,VWS V14.01,2013-05-20 05:04:00,
2013-05-19 22:09:00,51.5,41.3,30.22,WSW,254,0.0,0.0,68,0.00,,OVC095,0.00,VWS V14.01,2013-05-20 05:09:00,
2013-05-19 22:14:00,51.1,40.9,30.22,WSW,254,0.0,0.0,68,0.00,,OVC095,0.00,VWS V14.01,2013-05-20 05:14:00,
2013-05-19 22:19:00,50.9,40.7,30.22,WSW,254,0.0,0.0,68,0.00,,OVC095,0.00,VWS V14.01,2013-05-20 05:19:00,
2013-05-19 22:24:00,50.6,46.3,30.22,WSW,254,0.0,0.0,85,0.00,,OVC095,0.00,VWS V14.01,2013-05-20 05:24:00,
2013-05-19 22:29:00,50.4,46.1,30.22,WSW,254,0.0,0.0,85,0.00,,OVC095,0.00,VWS V14.01,2013-05-20 05:29:00,
2013-05-19 22:34:00,49.9,45.6,30.22,WSW,254,0.0,0.0,85,0.00,,OVC095,0.00,VWS V14.01,2013-05-20 05:34:00,
2013-05-19 22:39:00,49.9,46.2,30.22,WSW,254,0.0,0.0,87,0.00,,OVC095,0.00,VWS V14.01,2013-05-20 05:39:00,
2013-05-19 22:44:00,49.8,46.4,30.22,WSW,254,0.0,0.0,88,0.00,,OVC095,0.00,VWS V14.01,2013-05-20 05:44:00,
2013-05-19 22:50:00,49.6,46.2,30.22,WSW,254,0.0,0.0,88,0.00,,OVC095,0.00,VWS V14.01,2013-05-20 05:50:00,
2013-05-19 22:55:00,49.6,46.2,30.22,WSW,254,0.0,0.0,88,0.00,,OVC095,0.00,VWS V14.01,2013-05-20 05:55:00,
2013-05-19 23:00:00,49.6,46.2,30.22,WSW,254,0.0,0.0,88,0.00,,OVC095,0.00,VWS V14.01,2013-05-20 06:00:00,
2013-05-19 23:05:00,49.3,45.9,30.22,WSW,254,0.0,0.0,88,0.00,,BKN100,0.00,VWS V14.01,2013-05-20 06:05:00,
2013-05-19 23:10:00,49.0,45.6,30.22,WSW,254,0.0,0.0,88,0.00,,BKN100,0.00,VWS V14.01,2013-05-20 06:10:00,
2013-05-19 23:15:00,49.0,45.6,30.22,WSW,254,0.0,0.0,88,0.00,,BKN100,0.00,VWS V14.01,2013-05-20 06:15:00,
2013-05-19 23:20:00,49.0,45.6,30.23,WSW,254,0.0,0.0,88,0.00,,BKN100,0.00,VWS V14.01,2013-05-20 06:20:00,
2013-05-19 23:25:00,48.7,45.3,30.23,WSW,254,0.0,0.0,88,0.00,,BKN100,0.00,VWS V14.01,2013-05-20 06:25:00,
2013-05-19 23:30:00,48.6,45.2,30.23,WSW,254,0.0,0.0,88,0.00,,BKN100,0.00,VWS V14.01,2013-05-20 06:30:00,
2013-05-19 23:36:00,48.6,45.2,30.23,WSW,254,0.0,0.0,88,0.00,,BKN100,0.00,VWS V14.01,2013-05-20 06:36:00,
2013-05-19 23:41:00,48.6,45.2,30.23,WSW,254,0.0,0.0,88,0.00,,BKN100,0.00,VWS V14.01,2013-05-20 06:41:00,
2013-05-19 23:46:00,48.3,44.9,30.23,WSW,254,0.0,0.0,88,0.00,,BKN100,0.00,VWS V14.01,2013-05-20 06:46:00,
2013-05-19 23:51:00,48.3,44.9,30.23,WSW,254,0.0,0.0,88,0.00,,BKN100,0.00,VWS V14.01,2013-05-20 06:51:00,
2013-05-19 23:56:00,48.3,44.9,30.23,WSW,254,0.0,0.0,88,0.00,,BKN100,0.00,VWS V14.01,2013-05-20 06:56:00,